Time;durP1;ratioP1;P1;durP2;ratioP2;P2;SDS_P1;SDS_P2;PMS_P1;PMS_P2;Temp;Humidity;BMP_temperature;BMP_pressure;BME280_temperature;BME280_humidity;BME280_pressure;Samples;Min_cycle;Max_cycle;Signal;HPM_P1;HPM_P2
2023/03/07 00:01:51;;;;;;;0.30;0.30;;;;;;;13.94;84.53;98224.38;7402228;19;20025;-58
2023/03/07 00:04:17;;;;;;;0.70;0.70;;;;;;;10.20;100.00;98222.13;7399299;19;20015;-58
2023/03/07 00:06:43;;;;;;;0.73;0.73;;;;;;;9.92;100.00;98218.66;7398709;19;20293;-58
2023/03/07 00:09:10;;;;;;;0.85;0.85;;;;;;;5.89;100.00;98223.84;7399119;19;20014;-58
2023/03/07 00:11:36;;;;;;;2.22;1.40;;;;;;;4.08;100.00;98223.91;7401557;19;20011;-58
2023/03/07 00:14:06;;;;;;;3.03;1.05;;;;;;;8.43;100.00;98211.16;7398443;19;20006;-58
2023/03/07 00:16:33;;;;;;;0.20;0.20;;;;;;;8.78;100.00;98213.50;7398459;19;20032;-58
2023/03/07 00:18:59;;;;;;;1.85;1.17;;;;;;;9.98;100.00;98221.44;7397909;19;20235;-58
2023/03/07 00:21:31;;;;;;;1.33;1.23;;;;;;;13.41;100.00;98207.53;7400086;19;20007;-58
2023/03/07 00:23:57;;;;;;;;;;;;;;;15.15;75.29;98204.94;7397866;19;20106;-58
2023/03/07 00:26:24;;;;;;;0.45;0.45;;;;;;;16.01;69.62;98209.34;7397446;19;19910;-58
2023/03/07 00:28:52;;;;;;;0.98;0.70;;;;;;;14.22;79.96;98208.53;7397981;19;20014;-58
2023/03/07 00:31:19;;;;;;;0.70;0.70;;;;;;;17.14;66.59;98201.38;7399127;19;20024;-58
2023/03/07 00:33:46;;;;;;;0.20;0.20;;;;;;;15.88;66.68;98201.78;7396146;19;20014;-58
2023/03/07 00:36:15;;;;;;;0.95;0.95;;;;;;;16.33;66.22;98200.53;7396399;19;20010;-58
2023/03/07 00:38:42;;;;;;;0.70;0.70;;;;;;;16.78;64.39;98200.75;7396455;19;20025;-58
2023/03/07 00:41:13;;;;;;;0.60;0.60;;;;;;;13.17;85.04;98210.47;7398528;19;20011;-58
2023/03/07 00:43:40;;;;;;;0.73;0.40;;;;;;;14.81;74.57;98209.81;7396948;19;20014;-58
2023/03/07 00:46:06;;;;;;;1.35;0.52;;;;;;;13.17;81.38;98204.13;7397809;19;20006;-58
2023/03/07 00:48:34;;;;;;;1.05;0.93;;;;;;;15.78;67.37;98205.66;7395836;19;20010;-58
2023/03/07 00:51:01;;;;;;;0.25;0.25;;;;;;;18.01;62.63;98187.66;7399308;19;20495;-58
2023/03/07 00:53:27;;;;;;;1.23;0.73;;;;;;;19.28;53.88;98190.44;7396029;19;20013;-58
2023/03/07 00:56:02;;;;;;;1.05;1.05;;;;;;;19.13;53.90;98189.81;7395006;19;20014;-58
2023/03/07 00:58:32;;;;;;;0.20;0.20;;;;;;;17.29;57.39;98192.94;7393029;19;20066;-58
2023/03/07 01:00:59;;;;;;;0.47;0.47;;;;;;;17.60;57.90;98182.47;7397971;19;20496;-58
2023/03/07 01:03:27;;;;;;;0.38;0.38;;;;;;;17.94;55.66;98184.84;7395948;19;20007;-58
2023/03/07 01:05:53;;;;;;;0.47;0.45;;;;;;;19.27;54.01;98188.97;7395594;19;20010;-58
2023/03/07 01:08:21;;;;;;;0.20;0.20;;;;;;;18.12;54.51;98187.25;7393625;19;20084;-58
2023/03/07 01:10:50;;;;;;;0.50;0.50;;;;;;;16.58;56.18;98185.50;7395561;19;20017;-58
2023/03/07 01:13:18;;;;;;;0.40;0.40;;;;;;;17.85;54.99;98185.44;7394338;19;20471;-58
2023/03/07 01:15:44;;;;;;;0.50;0.50;;;;;;;18.27;53.95;98182.88;7395205;19;20014;-58
2023/03/07 01:18:10;;;;;;;0.47;0.47;;;;;;;19.04;52.08;98177.06;7393623;19;20078;-58
2023/03/07 01:20:38;;;;;;;0.22;0.22;;;;;;;18.92;51.90;98171.13;7396967;19;20034;-58
2023/03/07 01:23:04;;;;;;;0.13;0.13;;;;;;;18.91;51.68;98172.44;7395999;19;20017;-58
2023/03/07 01:25:37;;;;;;;0.30;0.30;;;;;;;18.76;51.61;98172.53;7394093;19;20109;-58
2023/03/07 01:28:04;;;;;;;1.58;0.55;;;;;;;18.89;51.26;98163.06;7393346;19;20074;-58
2023/03/07 01:30:30;;;;;;;0.10;0.10;;;;;;;19.09;50.74;98164.81;7396636;19;20039;-58
2023/03/07 01:32:57;;;;;;;0.70;0.70;;;;;;;13.66;59.10;98178.06;7395768;19;20021;-58
2023/03/07 01:35:25;;;;;;;18.52;0.95;;;;;;;12.21;72.67;98174.56;7394671;19;20037;-58
2023/03/07 01:37:54;;;;;;;0.45;0.45;;;;;;;13.04;74.72;98168.47;7392758;19;20482;-58
2023/03/07 01:40:22;;;;;;;0.30;0.30;;;;;;;12.02;82.04;98178.06;7396709;19;20013;-58
2023/03/07 01:42:49;;;;;;;2.85;0.70;;;;;;;13.00;72.15;98172.88;7394933;19;20344;-58
2023/03/07 01:45:15;;;;;;;2.15;0.50;;;;;;;10.72;87.88;98169.19;7393885;19;20014;-58
2023/03/07 01:47:43;;;;;;;3.90;0.63;;;;;;;10.49;94.20;98165.06;7391453;19;20018;-58
2023/03/07 01:50:13;;;;;;;1.05;0.80;;;;;;;10.43;95.95;98172.69;7393361;19;20010;-58
2023/03/07 01:52:57;;;;;;;0.73;0.52;;;;;;;9.74;97.28;98169.19;7393373;19;20011;-58
2023/03/07 01:55:29;;;;;;;0.40;0.40;;;;;;;10.36;97.28;98162.84;7392709;19;20007;-58
2023/03/07 01:58:12;;;;;;;0.30;0.30;;;;;;;10.80;94.27;98166.63;7391807;19;20018;-58
2023/03/07 02:00:40;;;;;;;0.30;0.30;;;;;;;10.44;95.98;98166.59;7394494;19;20006;-58
2023/03/07 02:03:31;;;;;;;0.77;0.43;;;;;;;10.07;97.18;98157.91;7392870;19;20535;-58
2023/03/07 02:06:02;;;;;;;0.95;0.30;;;;;;;10.16;98.15;98160.44;7393872;19;20070;-58
2023/03/07 02:08:29;;;;;;;;;;;;;;;10.58;96.59;98157.16;7393334;19;20325;-58
2023/03/07 02:10:56;;;;;;;0.20;0.20;;;;;;;11.04;91.26;98149.97;7394706;19;19939;-58
2023/03/07 02:13:22;;;;;;;4.07;1.63;;;;;;;10.52;94.16;98153.66;7396739;19;20015;-58
2023/03/07 02:15:51;;;;;;;0.15;0.15;;;;;;;17.30;65.86;98131.81;7392602;19;20491;-58
2023/03/07 02:18:23;;;;;;;0.43;0.43;;;;;;;18.88;56.10;98133.38;7391748;19;20014;-58
2023/03/07 02:20:58;;;;;;;0.25;0.25;;;;;;;19.65;51.30;98132.94;7395119;19;20026;-58
2023/03/07 02:23:50;;;;;;;0.95;0.82;;;;;;;19.98;49.65;98124.31;7392592;19;20018;-58
2023/03/07 02:26:20;;;;;;;;;;;;;;;20.13;49.03;98122.06;7394973;19;20520;-58
2023/03/07 02:28:47;;;;;;;0.17;0.17;;;;;;;22.17;46.09;98121.72;7392390;19;20263;-58
2023/03/07 02:31:14;;;;;;;11.40;1.30;;;;;;;21.31;43.57;98118.00;7391845;19;20010;-58
2023/03/07 02:33:40;;;;;;;2.00;1.35;;;;;;;18.99;46.82;98123.69;7392600;19;20018;-58
2023/03/07 02:36:27;;;;;;;1.55;1.00;;;;;;;21.19;43.51;98122.69;7393012;19;20015;-58
2023/03/07 02:39:24;;;;;;;0.75;0.75;;;;;;;23.27;40.47;98120.41;7393168;19;20010;-58
2023/03/07 02:41:54;;;;;;;0.50;0.50;;;;;;;21.70;42.04;98119.56;7396488;19;20124;-58
2023/03/07 02:44:28;;;;;;;0.35;0.35;;;;;;;23.86;39.00;98113.81;7396569;19;20018;-58
2023/03/07 02:46:54;;;;;;;1.17;1.00;;;;;;;22.77;39.67;98114.03;7391997;19;20100;-58
2023/03/07 02:49:23;;;;;;;0.88;0.88;;;;;;;23.49;38.14;98112.69;7391193;19;20035;-58
2023/03/07 02:51:49;;;;;;;3.25;0.57;;;;;;;20.00;42.41;98116.00;7395265;19;20011;-58
2023/03/07 02:54:16;;;;;;;0.40;0.40;;;;;;;21.17;39.57;98114.81;7392603;19;20610;-58
2023/03/07 02:56:42;;;;;;;0.35;0.35;;;;;;;23.43;37.99;98108.69;7393281;19;20006;-58
2023/03/07 02:59:08;;;;;;;0.30;0.30;;;;;;;23.03;37.99;98106.59;7393603;19;20021;-58
2023/03/07 03:01:35;;;;;;;0.93;0.70;;;;;;;19.82;40.78;98117.31;7402325;19;20017;-58
2023/03/07 03:04:01;;;;;;;0.45;0.45;;;;;;;18.96;42.30;98114.31;7399232;19;20011;-58
2023/03/07 03:06:27;;;;;;;0.22;0.22;;;;;;;18.51;43.17;98117.41;7401452;19;20014;-58
2023/03/07 03:08:53;;;;;;;0.85;0.85;;;;;;;18.32;44.06;98117.84;7399083;19;20043;-58
2023/03/07 03:11:20;;;;;;;0.22;0.22;;;;;;;18.44;44.12;98121.00;7401485;19;20026;-58
2023/03/07 03:13:46;;;;;;;0.43;0.43;;;;;;;18.51;43.69;98114.59;7400989;19;20014;-58
2023/03/07 03:16:13;;;;;;;0.28;0.28;;;;;;;18.55;43.54;98120.59;7400642;19;20026;-58
2023/03/07 03:18:39;;;;;;;0.20;0.20;;;;;;;18.42;43.34;98123.63;7394626;19;20132;-58
2023/03/07 03:21:09;;;;;;;0.40;0.40;;;;;;;18.59;43.28;98123.75;7401567;19;20011;-58
2023/03/07 03:23:36;;;;;;;0.30;0.30;;;;;;;16.46;45.27;98114.03;7398017;19;20021;-58
2023/03/07 03:26:06;;;;;;;0.15;0.15;;;;;;;18.61;41.38;98113.41;7398568;19;20006;-58
2023/03/07 03:28:34;;;;;;;0.45;0.45;;;;;;;22.72;38.29;98091.66;7398667;19;20010;-58
2023/03/07 03:31:05;;;;;;;0.30;0.30;;;;;;;19.57;40.65;98109.69;7398996;19;20066;-58
2023/03/07 03:33:32;;;;;;;0.50;0.50;;;;;;;23.94;36.53;98102.22;7398385;19;20014;-58
2023/03/07 03:36:03;;;;;;;0.15;0.13;;;;;;;20.68;39.29;98104.56;7398247;19;20030;-58
2023/03/07 03:38:30;;;;;;;0.43;0.43;;;;;;;23.08;37.54;98102.72;7396497;19;20006;-58
2023/03/07 03:40:56;;;;;;;0.55;0.55;;;;;;;24.45;35.74;98101.31;7398241;19;20021;-58
2023/03/07 03:43:23;;;;;;;0.60;0.60;;;;;;;25.69;33.65;98104.06;7400678;19;20022;-58
2023/03/07 03:45:56;;;;;;;0.50;0.50;;;;;;;23.99;34.39;98099.03;7397860;19;20975;-57
2023/03/07 03:48:25;;;;;;;0.40;0.40;;;;;;;24.37;34.31;98108.59;7397469;19;20420;-57
2023/03/07 03:51:07;;;;;;;2.00;0.40;;;;;;;24.39;34.08;98108.72;7399523;19;20468;-57
2023/03/07 03:53:35;;;;;;;;;;;;;;;20.27;37.60;98111.19;7397339;19;20014;-57
2023/03/07 03:56:05;;;;;;;0.70;0.70;;;;;;;23.40;34.65;98099.28;7396068;19;19914;-57
2023/03/07 03:58:33;;;;;;;0.60;0.60;;;;;;;23.65;34.30;98091.03;7395507;19;20021;-57
2023/03/07 04:01:04;;;;;;;0.40;0.40;;;;;;;23.02;34.61;98093.78;7400404;19;20043;-57
2023/03/07 04:03:32;;;;;;;0.30;0.30;;;;;;;22.84;34.50;98095.31;7397182;19;20013;-57
2023/03/07 04:06:08;;;;;;;0.98;0.45;;;;;;;21.72;35.10;98094.22;7396945;19;20010;-58
2023/03/07 04:08:36;;;;;;;0.75;0.75;;;;;;;19.00;38.99;98103.38;7397686;19;20010;-58
2023/03/07 04:11:03;;;;;;;1.70;0.77;;;;;;;18.71;39.55;98105.09;7395980;19;20078;-58
2023/03/07 04:13:31;;;;;;;0.28;0.28;;;;;;;18.93;39.56;98098.53;7399449;19;20038;-58
2023/03/07 04:15:57;;;;;;;0.20;0.20;;;;;;;18.58;39.89;98096.91;7396441;19;20081;-58
2023/03/07 04:18:24;;;;;;;0.77;0.77;;;;;;;20.06;38.64;98094.63;7396514;19;20021;-58
2023/03/07 04:20:51;;;;;;;1.38;0.20;;;;;;;22.72;35.12;98088.81;7398057;19;20463;-58
2023/03/07 04:23:21;;;;;;;2.40;1.02;;;;;;;22.81;34.71;98090.84;7397066;19;20018;-58
2023/03/07 04:25:48;;;;;;;0.52;0.52;;;;;;;23.77;33.62;98086.19;7397165;19;20039;-57
2023/03/07 04:28:18;;;;;;;1.13;1.08;;;;;;;23.73;33.70;98100.13;7397212;19;20010;-57
2023/03/07 04:30:45;;;;;;;0.35;0.35;;;;;;;23.58;33.41;98103.38;7398293;19;20015;-58
2023/03/07 04:33:12;;;;;;;0.20;0.20;;;;;;;20.30;36.09;98113.59;7397690;19;20011;-58
2023/03/07 04:35:38;;;;;;;0.30;0.30;;;;;;;12.80;48.71;98118.31;7396209;19;20503;-57
2023/03/07 04:38:05;;;;;;;0.38;0.38;;;;;;;20.28;40.06;98101.38;7396348;19;20329;-57
2023/03/07 04:40:32;;;;;;;0.98;0.57;;;;;;;22.22;35.76;98097.97;7398551;19;20017;-57
2023/03/07 04:42:59;;;;;;;0.20;0.20;;;;;;;21.79;35.72;98098.97;7397630;19;20332;-57
2023/03/07 04:45:25;;;;;;;0.55;0.55;;;;;;;11.51;50.68;98117.81;7397838;19;20066;-57
2023/03/07 04:47:51;;;;;;;0.40;0.40;;;;;;;18.98;43.40;98102.44;7396309;19;20053;-57
2023/03/07 04:50:19;;;;;;;0.30;0.30;;;;;;;20.55;38.21;98095.72;7396765;19;20039;-57
2023/03/07 04:52:46;;;;;;;0.63;0.63;;;;;;;22.82;36.02;98101.63;7397330;19;20021;-57
2023/03/07 04:55:13;;;;;;;0.30;0.30;;;;;;;21.38;36.85;98088.78;7395970;19;20045;-57
2023/03/07 04:57:41;;;;;;;0.60;0.60;;;;;;;19.38;39.67;98091.78;7396756;19;20022;-57
2023/03/07 05:00:09;;;;;;;0.70;0.70;;;;;;;18.87;40.01;98095.19;7395787;19;20514;-57
2023/03/07 05:02:37;;;;;;;0.40;0.40;;;;;;;20.70;37.65;98079.28;7394350;19;20015;-57
2023/03/07 05:05:04;;;;;;;0.60;0.60;;;;;;;20.05;37.90;98089.56;7395228;19;20015;-57
2023/03/07 05:07:32;;;;;;;1.75;0.70;;;;;;;24.22;34.35;98075.66;7395332;19;20035;-57
2023/03/07 05:09:58;;;;;;;3.58;0.40;;;;;;;24.82;32.69;98078.78;7395415;19;20496;-57
2023/03/07 05:12:25;;;;;;;0.55;0.55;;;;;;;25.46;32.18;98062.84;7398867;19;20014;-57
2023/03/07 05:14:52;;;;;;;0.40;0.40;;;;;;;23.76;32.58;98079.00;7400172;19;20010;-57
2023/03/07 05:17:19;;;;;;;1.10;1.10;;;;;;;20.78;35.91;98079.91;7395556;19;20043;-57
2023/03/07 05:19:45;;;;;;;0.20;0.20;;;;;;;18.24;39.61;98091.00;7396242;19;20010;-57
2023/03/07 05:22:12;;;;;;;0.75;0.50;;;;;;;23.44;33.23;98088.19;7400019;19;20011;-58
2023/03/07 05:24:38;;;;;;;0.30;0.30;;;;;;;22.69;33.88;98095.69;7396081;19;20049;-58
2023/03/07 05:27:05;;;;;;;0.32;0.32;;;;;;;15.17;43.66;98106.25;7394752;19;20098;-58
2023/03/07 05:29:31;;;;;;;0.28;0.28;;;;;;;18.06;39.27;98102.19;7395038;19;20031;-57
2023/03/07 05:31:57;;;;;;;10.23;0.73;;;;;;;23.04;34.19;98096.75;7399249;19;20018;-57
2023/03/07 05:34:24;;;;;;;1.75;0.98;;;;;;;22.24;35.47;98091.72;7394379;19;20018;-57
2023/03/07 05:36:51;;;;;;;1.10;1.02;;;;;;;17.54;37.39;98097.47;7393461;19;20015;-57
2023/03/07 05:39:17;;;;;;;0.45;0.45;;;;;;;22.72;34.17;98088.81;7393956;19;20357;-57
2023/03/07 05:41:44;;;;;;;0.30;0.30;;;;;;;24.51;32.41;98090.34;7397466;19;20044;-57
2023/03/07 05:44:11;;;;;;;0.43;0.43;;;;;;;24.92;31.54;98087.97;7398053;19;20015;-57
2023/03/07 05:46:37;;;;;;;0.52;0.52;;;;;;;25.07;30.74;98093.19;7393878;19;20031;-57
2023/03/07 05:49:04;;;;;;;0.73;0.73;;;;;;;25.01;31.11;98092.81;7393436;19;20377;-58
2023/03/07 05:51:30;;;;;;;0.63;0.63;;;;;;;24.72;30.52;98089.50;7396352;19;20011;-58
2023/03/07 05:53:56;;;;;;;0.30;0.30;;;;;;;24.33;30.81;98088.44;7392194;19;20403;-57
2023/03/07 05:56:23;;;;;;;1.85;1.05;;;;;;;24.85;30.05;98086.09;7388461;19;20011;-57
2023/03/07 05:58:49;;;;;;;0.35;0.35;;;;;;;24.75;30.28;98089.03;7388030;19;20010;-57
2023/03/07 06:01:15;;;;;;;0.60;0.60;;;;;;;24.38;30.35;98090.19;7391425;19;20025;-57
2023/03/07 06:03:43;;;;;;;0.55;0.55;;;;;;;24.33;30.51;98088.44;7389163;19;20038;-57
2023/03/07 06:06:13;;;;;;;10.05;1.70;;;;;;;24.94;30.04;98082.41;7389305;19;20039;-57
2023/03/07 06:08:40;;;;;;;3.90;1.20;;;;;;;24.80;29.55;98078.66;7389107;19;20031;-57
2023/03/07 06:11:09;;;;;;;0.63;0.38;;;;;;;23.76;30.26;98092.47;7395327;19;20014;-57
2023/03/07 06:13:37;;;;;;;1.60;0.60;;;;;;;23.88;30.20;98079.81;7394979;19;20103;-57
2023/03/07 06:16:03;;;;;;;0.57;0.57;;;;;;;23.85;30.57;98081.03;7393139;19;20018;-57
2023/03/07 06:18:30;;;;;;;0.40;0.40;;;;;;;23.73;30.24;98083.06;7391250;19;20010;-57
2023/03/07 06:21:01;;;;;;;0.10;0.10;;;;;;;17.40;35.67;98096.13;7395809;19;20082;-57
2023/03/07 06:23:33;;;;;;;0.45;0.45;;;;;;;21.54;32.87;98095.69;7392536;19;20014;-57
2023/03/07 06:26:00;;;;;;;0.52;0.52;;;;;;;12.50;42.50;98109.41;7391570;19;20014;-57
2023/03/07 06:28:26;;;;;;;0.55;0.55;;;;;;;6.09;60.45;98136.16;7393399;19;20014;-57
2023/03/07 06:30:53;;;;;;;0.30;0.30;;;;;;;4.67;100.00;98144.78;7394775;19;20010;-57
2023/03/07 06:33:19;;;;;;;0.32;0.32;;;;;;;8.22;88.82;98129.41;7393675;19;20025;-57
2023/03/07 06:35:46;;;;;;;0.45;0.45;;;;;;;11.51;60.54;98128.19;7392580;19;20018;-57
2023/03/07 06:38:15;;;;;;;0.85;0.63;;;;;;;11.23;62.00;98132.06;7391339;19;20082;-57
2023/03/07 06:40:41;;;;;;;0.30;0.30;;;;;;;9.00;73.06;98133.75;7393425;19;20019;-57
2023/03/07 06:43:11;;;;;;;0.30;0.30;;;;;;;11.19;65.44;98125.25;7393936;19;20499;-57
2023/03/07 06:45:37;;;;;;;2.40;0.95;;;;;;;9.70;68.89;98132.56;7391262;19;20361;-57
2023/03/07 06:48:04;;;;;;;4.97;1.73;;;;;;;10.31;66.71;98127.47;7390940;19;20010;-57
2023/03/07 06:50:30;;;;;;;1.77;0.95;;;;;;;10.02;66.29;98132.94;7392631;19;20078;-57
2023/03/07 06:52:56;;;;;;;1.70;1.55;;;;;;;10.76;67.71;98133.50;7392242;19;20011;-57
2023/03/07 06:55:22;;;;;;;1.42;0.95;;;;;;;11.55;62.20;98137.03;7392193;19;20078;-57
2023/03/07 06:57:49;;;;;;;0.75;0.75;;;;;;;10.13;68.92;98139.22;7390571;19;20521;-57
2023/03/07 07:00:16;;;;;;;4.45;1.77;;;;;;;12.15;62.62;98127.94;7393620;19;20010;-57
2023/03/07 07:02:42;;;;;;;10.10;1.42;;;;;;;8.90;66.40;98140.81;7391929;19;20010;-57
2023/03/07 07:05:08;;;;;;;4.13;2.10;;;;;;;7.40;84.74;98148.00;7392907;19;20798;-57
2023/03/07 07:07:34;;;;;;;0.30;0.30;;;;;;;11.08;76.15;98144.84;7390457;19;20351;-57
2023/03/07 07:10:01;;;;;;;0.20;0.20;;;;;;;10.77;70.46;98150.94;7391773;19;20018;-57
2023/03/07 07:12:28;;;;;;;0.50;0.50;;;;;;;11.85;64.87;98141.25;7395731;19;20011;-57
2023/03/07 07:14:55;;;;;;;0.30;0.30;;;;;;;12.18;61.87;98149.22;7394478;19;20022;-57
2023/03/07 07:17:21;;;;;;;7.93;2.03;;;;;;;11.99;62.19;98153.28;7392074;19;20015;-57
2023/03/07 07:19:48;;;;;;;0.47;0.47;;;;;;;12.08;61.10;98150.13;7391683;19;20011;-57
2023/03/07 07:22:16;;;;;;;2.40;1.20;;;;;;;11.86;61.51;98147.59;7390362;19;20483;-57
2023/03/07 07:24:43;;;;;;;1.38;0.65;;;;;;;11.97;60.59;98151.03;7390788;19;20026;-57
2023/03/07 07:27:09;;;;;;;0.90;0.60;;;;;;;12.08;59.74;98153.63;7390549;19;20002;-57
2023/03/07 07:29:36;;;;;;;0.60;0.60;;;;;;;11.84;60.20;98156.50;7391102;19;20018;-57
2023/03/07 07:32:02;;;;;;;0.57;0.57;;;;;;;12.00;60.60;98160.34;7396664;19;20011;-57
2023/03/07 07:34:28;;;;;;;3.13;1.60;;;;;;;12.30;59.09;98163.03;7392422;19;20017;-57
2023/03/07 07:36:55;;;;;;;0.70;0.70;;;;;;;11.47;59.66;98159.16;7390572;19;20013;-57
2023/03/07 07:39:23;;;;;;;1.60;1.40;;;;;;;11.06;61.52;98161.34;7392465;19;20043;-57
2023/03/07 07:41:49;;;;;;;0.45;0.45;;;;;;;10.56;62.62;98158.94;7394109;19;20034;-57
2023/03/07 07:44:18;;;;;;;0.40;0.40;;;;;;;10.50;63.26;98167.31;7394115;19;20320;-57
2023/03/07 07:46:53;;;;;;;6.20;1.80;;;;;;;10.88;63.16;98157.19;7396248;19;20007;-57
2023/03/07 07:49:19;;;;;;;1.75;0.70;;;;;;;10.49;63.29;98163.03;7397202;19;20014;-57
2023/03/07 07:51:46;;;;;;;0.80;0.73;;;;;;;9.84;65.68;98162.84;7401183;19;20017;-57
2023/03/07 07:54:12;;;;;;;0.90;0.90;;;;;;;12.50;61.42;98157.63;7398123;19;20351;-57
2023/03/07 07:56:38;;;;;;;0.65;0.65;;;;;;;10.57;62.93;98183.47;7399065;19;20340;-57
2023/03/07 07:59:04;;;;;;;2.60;1.60;;;;;;;10.35;63.97;98175.25;7397445;19;20018;-57
2023/03/07 08:01:31;;;;;;;1.40;1.35;;;;;;;9.77;66.80;98185.59;7400784;19;20464;-57
2023/03/07 08:03:57;;;;;;;1.20;1.10;;;;;;;9.96;66.45;98185.81;7397927;19;20486;-56
2023/03/07 08:06:26;;;;;;;2.50;1.42;;;;;;;11.36;64.70;98178.78;7399541;19;20025;-57
2023/03/07 08:08:53;;;;;;;0.82;0.82;;;;;;;12.74;62.01;98170.75;7398470;19;20400;-58
2023/03/07 08:11:20;;;;;;;2.72;1.63;;;;;;;15.19;56.92;98168.13;7400791;19;20010;-57
2023/03/07 08:13:47;;;;;;;4.45;1.58;;;;;;;11.04;62.08;98181.38;7401526;19;20078;-58
2023/03/07 08:16:18;;;;;;;6.53;1.95;;;;;;;11.82;61.10;98181.38;7398638;19;20018;-57
2023/03/07 08:18:54;;;;;;;;;;;;;;;11.24;62.84;98178.13;7397393;19;20014;-57
2023/03/07 08:21:22;;;;;;;2.55;1.77;;;;;;;10.05;66.05;98198.66;7401234;19;19914;-56
2023/03/07 08:23:48;;;;;;;2.10;0.70;;;;;;;8.97;73.64;98204.16;7398311;19;20003;-56
2023/03/07 08:26:16;;;;;;;6.50;1.75;;;;;;;8.01;80.29;98214.03;7397384;19;20011;-57
2023/03/07 08:28:42;;;;;;;13.35;3.40;;;;;;;7.83;86.76;98208.91;7395694;19;20010;-57
2023/03/07 08:31:11;;;;;;;1.38;1.38;;;;;;;7.62;91.88;98211.06;7399509;19;20015;-56
2023/03/07 08:33:37;;;;;;;3.65;1.70;;;;;;;7.76;93.17;98206.59;7397207;19;20022;-57
2023/03/07 08:36:05;;;;;;;1.95;1.45;;;;;;;7.73;93.97;98211.13;7397773;19;20014;-57
2023/03/07 08:38:31;;;;;;;1.15;1.10;;;;;;;7.63;95.58;98213.34;7394721;19;20482;-57
2023/03/07 08:41:05;;;;;;;3.50;2.28;;;;;;;7.25;99.42;98204.78;7399079;19;20088;-57
2023/03/07 08:43:35;;;;;;;0.90;0.90;;;;;;;7.36;100.00;98207.66;7399526;19;20086;-57
2023/03/07 08:46:02;;;;;;;1.05;0.65;;;;;;;7.14;100.00;98205.47;7397323;19;20014;-57
2023/03/07 08:48:29;;;;;;;9.40;1.40;;;;;;;7.12;100.00;98210.75;7396554;19;20021;-57
2023/03/07 08:50:55;;;;;;;0.93;0.93;;;;;;;7.11;100.00;98214.75;7397509;19;20047;-57
2023/03/07 08:53:22;;;;;;;2.03;1.83;;;;;;;2.69;100.00;98224.78;7396362;19;20018;-57
2023/03/07 08:55:48;;;;;;;0.75;0.75;;;;;;;1.43;100.00;98229.06;7396848;19;20021;-57
2023/03/07 08:58:14;;;;;;;1.30;1.17;;;;;;;1.07;100.00;98227.00;7393555;19;20018;-57
2023/03/07 09:00:40;;;;;;;0.75;0.73;;;;;;;1.16;100.00;98238.00;7397827;19;20010;-57
2023/03/07 09:03:07;;;;;;;1.58;1.17;;;;;;;1.42;100.00;98239.31;7396941;19;20017;-57
2023/03/07 09:05:36;;;;;;;0.98;0.98;;;;;;;1.17;100.00;98234.03;7397368;19;20018;-57
2023/03/07 09:08:03;;;;;;;0.30;0.30;;;;;;;1.26;100.00;98234.06;7396955;19;20007;-57
2023/03/07 09:10:29;;;;;;;1.08;0.85;;;;;;;10.45;100.00;98209.88;7396884;19;20474;-57
2023/03/07 09:12:55;;;;;;;0.68;0.68;;;;;;;9.43;93.35;98214.75;7397944;19;20015;-57
2023/03/07 09:15:21;;;;;;;0.95;0.95;;;;;;;10.99;96.70;98210.00;7400873;19;20011;-57
2023/03/07 09:17:47;;;;;;;2.78;1.02;;;;;;;7.45;100.00;98224.06;7394235;19;20456;-57
2023/03/07 09:20:17;;;;;;;0.43;0.43;;;;;;;11.27;94.85;98215.34;7395115;19;20463;-57
2023/03/07 09:22:45;;;;;;;0.82;0.82;;;;;;;10.87;91.84;98208.56;7396157;19;20078;-57
2023/03/07 09:25:11;;;;;;;0.50;0.50;;;;;;;11.67;87.34;98206.13;7395753;19;20011;-57
2023/03/07 09:27:38;;;;;;;1.95;1.27;;;;;;;12.83;80.88;98206.66;7396402;19;20531;-57
2023/03/07 09:30:04;;;;;;;1.40;0.88;;;;;;;13.62;74.62;98216.81;7396445;19;20018;-57
2023/03/07 09:32:32;;;;;;;1.58;0.80;;;;;;;11.96;77.71;98212.91;7395818;19;20025;-57
2023/03/07 09:34:58;;;;;;;0.85;0.85;;;;;;;13.44;75.75;98211.31;7395655;19;20420;-57
2023/03/07 09:37:25;;;;;;;4.28;1.75;;;;;;;12.80;80.26;98216.09;7394761;19;20022;-57
2023/03/07 09:39:51;;;;;;;1.05;0.98;;;;;;;9.92;86.59;98227.00;7395208;19;20019;-57
2023/03/07 09:42:39;;;;;;;2.45;0.80;;;;;;;7.39;100.00;98224.03;7399230;19;20047;-57
2023/03/07 09:45:15;;;;;;;0.82;0.82;;;;;;;6.68;100.00;98224.19;7391761;19;20077;-57
2023/03/07 09:48:29;;;;;;;0.43;0.43;;;;;;;6.63;100.00;98233.19;7393876;19;20041;-58
2023/03/07 09:51:00;;;;;;;1.75;0.70;;;;;;;6.74;100.00;98227.78;7396921;19;20474;-59
2023/03/07 09:53:36;;;;;;;0.53;0.50;;;;;;;7.19;100.00;98229.66;7393892;19;20082;-58
2023/03/07 09:56:07;;;;;;;14.55;1.50;;;;;;;6.61;100.00;98235.69;7394400;19;20099;-57
2023/03/07 09:58:37;;;;;;;4.82;1.23;;;;;;;8.36;100.00;98223.50;7393125;19;20013;-57
2023/03/07 10:01:07;;;;;;;0.40;0.40;;;;;;;5.34;100.00;98232.09;7396389;19;20018;-57
2023/03/07 10:03:39;;;;;;;0.70;0.70;;;;;;;3.69;100.00;98236.88;7395047;19;20021;-57
2023/03/07 10:06:25;;;;;;;1.55;1.38;;;;;;;3.22;100.00;98236.06;7393551;19;20033;-57
2023/03/07 10:08:54;;;;;;;0.88;0.80;;;;;;;4.29;100.00;98233.81;7392128;19;20015;-57
2023/03/07 10:11:45;;;;;;;0.80;0.80;;;;;;;4.08;100.00;98229.41;7397365;19;20459;-57
2023/03/07 10:14:44;;;;;;;0.15;0.15;;;;;;;3.60;100.00;98236.16;7396265;19;20015;-58
2023/03/07 10:17:23;;;;;;;0.50;0.50;;;;;;;3.53;100.00;98228.28;7394299;19;20400;-57
2023/03/07 10:19:54;;;;;;;0.13;0.13;;;;;;;4.22;100.00;98238.97;7394150;19;20014;-58
2023/03/07 10:22:38;;;;;;;0.40;0.40;;;;;;;2.93;100.00;98233.88;7397795;19;20066;-58
2023/03/07 10:25:13;;;;;;;1.65;0.82;;;;;;;3.66;100.00;98229.56;7394582;19;20463;-57
2023/03/07 10:27:39;;;;;;;4.95;0.98;;;;;;;3.12;100.00;98232.59;7394894;19;20028;-57
2023/03/07 10:30:17;;;;;;;0.68;0.68;;;;;;;3.01;100.00;98230.34;7392289;19;20015;-57
2023/03/07 10:32:52;;;;;;;0.60;0.60;;;;;;;3.26;100.00;98236.66;7392013;19;20504;-58
2023/03/07 10:35:31;;;;;;;0.85;0.43;;;;;;;3.24;100.00;98228.13;7392953;19;20018;-58
2023/03/07 10:38:15;;;;;;;0.73;0.55;;;;;;;3.74;100.00;98230.75;7392429;19;20023;-57
2023/03/07 10:40:49;;;;;;;0.30;0.30;;;;;;;3.52;100.00;98238.53;7395684;19;20072;-57
2023/03/07 10:43:28;;;;;;;0.30;0.30;;;;;;;4.72;100.00;98231.59;7394223;19;20019;-58
2023/03/07 10:46:10;;;;;;;0.75;0.75;;;;;;;4.20;100.00;98225.63;7398718;19;20494;-57
2023/03/07 10:48:40;;;;;;;0.38;0.38;;;;;;;7.65;100.00;98221.91;7393793;19;20035;-57
2023/03/07 10:51:39;;;;;;;0.85;0.85;;;;;;;5.40;100.00;98238.44;7395888;19;20027;-57
2023/03/07 10:54:15;;;;;;;0.38;0.38;;;;;;;11.31;100.00;98226.97;7393805;19;20011;-58
2023/03/07 10:57:02;;;;;;;0.35;0.35;;;;;;;15.67;66.64;98223.53;7391116;19;20362;-57
2023/03/07 10:59:28;;;;;;;0.30;0.30;;;;;;;13.18;68.50;98217.59;7394060;19;20070;-57
2023/03/07 11:01:57;;;;;;;3.72;1.08;;;;;;;10.35;73.29;98233.69;7396787;19;20015;-57
2023/03/07 11:04:27;;;;;;;1.95;1.20;;;;;;;5.56;100.00;98243.47;7393642;19;20010;-57
2023/03/07 11:06:59;;;;;;;0.47;0.47;;;;;;;13.44;76.95;98228.84;7392932;19;20014;-57
2023/03/07 11:09:34;;;;;;;0.40;0.40;;;;;;;15.37;60.93;98222.50;7392062;19;20022;-57
2023/03/07 11:12:08;;;;;;;0.65;0.40;;;;;;;6.70;98.62;98246.59;7396538;19;20010;-58
2023/03/07 11:14:57;;;;;;;4.10;0.88;;;;;;;6.36;100.00;98247.50;7396829;19;20381;-57
2023/03/07 11:17:39;;;;;;;0.32;0.32;;;;;;;8.80;100.00;98244.28;7389903;19;20015;-58
2023/03/07 11:20:17;;;;;;;0.22;0.22;;;;;;;5.58;100.00;98252.03;7392387;19;20513;-57
2023/03/07 11:22:44;;;;;;;0.82;0.82;;;;;;;5.26;100.00;98264.09;7400505;19;20019;-57
2023/03/07 11:25:25;;;;;;;0.30;0.30;;;;;;;7.07;100.00;98257.75;7399463;19;20014;-57
2023/03/07 11:27:52;;;;;;;;;;;;;;;4.79;100.00;98261.53;7400101;19;20010;-58
2023/03/07 11:30:28;;;;;;;0.55;0.50;;;;;;;4.61;100.00;98260.47;7400160;19;19919;-58
2023/03/07 11:33:05;;;;;;;0.35;0.35;;;;;;;4.41;100.00;98260.38;7400866;19;20007;-57
2023/03/07 11:35:43;;;;;;;0.28;0.28;;;;;;;6.14;100.00;98264.59;7399357;19;20073;-58
2023/03/07 11:38:24;;;;;;;0.25;0.25;;;;;;;6.42;100.00;98268.44;7396551;19;20015;-57
2023/03/07 11:40:55;;;;;;;0.20;0.20;;;;;;;6.44;100.00;98259.66;7401362;19;20011;-58
2023/03/07 11:43:33;;;;;;;;;;;;;;;5.80;100.00;98257.84;7402281;19;20018;-58
2023/03/07 11:46:08;;;;;;;3.83;0.40;;;;;;;6.21;100.00;98261.41;7398864;19;19914;-58
2023/03/07 11:48:50;;;;;;;0.20;0.20;;;;;;;5.95;100.00;98264.13;7398492;19;20011;-58